Salem, IL

3:33 PM CDT on April 22, 2018 (GMT -0500)
Salem-Leckrone

Weather History for KSLO - November, 2013

Change the Weather History Date:

Tuesday, November 12, 2013

  Actual Average Record
Temperature  
Mean Temperature 29 °F -  
Max Temperature 35 °F 53 °F 79 °F (1971)
Min Temperature 23 °F 34 °F 18 °F (1976)
Degree Days  
Heating Degree Days 36    
Moisture  
Dew Point 23 °F    
Average Humidity 77    
Maximum Humidity 95    
Minimum Humidity 58    
Precipitation  
Precipitation 0.00 in - - ()
Sea Level Pressure  
Sea Level Pressure 30.66 in    
Wind  
Wind Speed 12 mph (North)    
Max Wind Speed 20 mph    
Max Gust Speed 29 mph    
Visibility 10 miles    
Events Snow    
Averages and records for this station are not official NWS values.
T = Trace of Precipitation, MM = Missing Value Source: NWS Daily Summary

Daily Weather History Graph

Daily Weather History Graph

Search for Another Location

Airport or City:

Astronomy

Nov. 12, 2013 Rise Set
Actual Time 6:34 AM CST 4:44 PM CST
Civil Twilight 6:06 AM CST 5:12 PM CST
Nautical Twilight 5:34 AM CST 5:44 PM CST
Astronomical Twilight 5:03 AM CST 6:16 PM CST
Moon 1:56 PM CST (11/12) 1:27 AM CST (11/12)
Length of Visible Light 11h 06m
Length of Day
10h 09m
Waxing Gibbous, 76% of the Moon is Illuminated
Nov 12
Waxing Gibbous
Nov 17
Full
Nov 25
Last Quarter
Dec 2
New
Dec 9
First Quarter

Hourly Weather History & Observations

Time (CST) Temp. Windchill Dew Point Humidity Pressure Visibility Wind Dir Wind Speed Gust Speed Precip Events Conditions
12:15 AM 34.5 °F 24.5 °F 32.0 °F 90% 30.45 in 10.0 mi North 16.1 mph 25.3 mph N/A   Overcast
12:35 AM 33.3 °F 22.5 °F 31.1 °F 92% 30.46 in 7.0 mi North 17.3 mph - N/A Snow Light Snow
12:55 AM 32.9 °F 21.3 °F 31.1 °F 93% 30.47 in 5.0 mi North 19.6 mph 25.3 mph N/A Snow Light Snow
1:15 AM 32.7 °F 23.0 °F 30.2 °F 90% 30.48 in 7.0 mi North 13.8 mph - N/A Snow Light Snow
1:35 AM 32.4 °F 21.3 °F 29.3 °F 88% 30.49 in 10.0 mi North 17.3 mph 23.0 mph N/A   Overcast
1:55 AM 32.5 °F 22.3 °F 29.3 °F 88% 30.49 in 10.0 mi North 15.0 mph - N/A   Overcast
2:15 AM 32.5 °F 21.5 °F 28.9 °F 87% 30.50 in 10.0 mi North 17.3 mph 20.7 mph N/A   Overcast
2:35 AM 32.0 °F 20.5 °F 25.7 °F 78% 30.51 in 10.0 mi North 18.4 mph 28.8 mph N/A   Overcast
2:55 AM 31.6 °F 20.7 °F 25.2 °F 77% 30.52 in 10.0 mi North 16.1 mph 25.3 mph N/A   Mostly Cloudy
3:15 AM 30.9 °F 19.4 °F 24.6 °F 77% 30.53 in 10.0 mi North 17.3 mph 21.9 mph N/A   Scattered Clouds
3:35 AM 30.2 °F 20.2 °F 24.3 °F 79% 30.53 in 10.0 mi North 12.7 mph 23.0 mph N/A   Clear
3:55 AM 29.8 °F 18.9 °F 23.5 °F 77% 30.54 in 10.0 mi North 15.0 mph 19.6 mph N/A   Clear
4:15 AM 29.3 °F 17.7 °F 22.8 °F 77% 30.56 in 10.0 mi North 16.1 mph 20.7 mph N/A   Clear
4:35 AM 28.8 °F 17.0 °F 21.9 °F 76% 30.56 in 10.0 mi North 16.1 mph - N/A   Clear
4:55 AM 28.4 °F 17.0 °F 21.9 °F 77% 30.58 in 10.0 mi North 15.0 mph - N/A   Clear
5:15 AM 28.0 °F 16.5 °F 21.6 °F 77% 30.60 in 10.0 mi North 15.0 mph 21.9 mph N/A   Clear
5:35 AM 27.9 °F 17.8 °F 21.7 °F 78% 30.61 in 10.0 mi North 11.5 mph 17.3 mph N/A   Scattered Clouds
5:55 AM 27.9 °F 17.3 °F 21.7 °F 78% 30.62 in 10.0 mi North 12.7 mph - N/A   Mostly Cloudy
6:15 AM 27.3 °F 17.1 °F 21.2 °F 78% 30.63 in 10.0 mi North 11.5 mph 17.3 mph N/A   Mostly Cloudy
6:35 AM 27.1 °F 16.9 °F 21.4 °F 79% 30.64 in 10.0 mi North 11.5 mph - N/A   Mostly Cloudy
6:55 AM 26.8 °F 15.4 °F 20.8 °F 78% 30.66 in 10.0 mi North 13.8 mph - N/A   Mostly Cloudy
7:15 AM 27.0 °F 16.1 °F 21.2 °F 79% 30.67 in 10.0 mi North 12.7 mph - N/A   Mostly Cloudy
7:35 AM 27.5 °F 16.3 °F 21.0 °F 77% 30.69 in 10.0 mi North 13.8 mph - N/A   Mostly Cloudy
7:55 AM 28.2 °F 17.7 °F 21.7 °F 77% 30.70 in 10.0 mi North 12.7 mph 18.4 mph N/A   Mostly Cloudy
8:15 AM 28.4 °F 17.0 °F 21.7 °F 76% 30.70 in 10.0 mi North 15.0 mph - N/A   Mostly Cloudy
8:35 AM 29.1 °F 18.9 °F 22.3 °F 76% 30.71 in 10.0 mi North 12.7 mph - N/A   Scattered Clouds
8:55 AM 29.5 °F 20.4 °F 22.3 °F 75% 30.71 in 10.0 mi North 10.4 mph - N/A   Clear
9:15 AM 30.2 °F 20.2 °F 22.3 °F 72% 30.71 in 10.0 mi North 12.7 mph - N/A   Clear
9:35 AM 31.1 °F 21.4 °F 23.2 °F 72% 30.71 in 10.0 mi North 12.7 mph - N/A   Clear
9:55 AM 31.8 °F 22.8 °F 23.0 °F 70% 30.72 in 10.0 mi North 11.5 mph - N/A   Clear
10:15 AM 32.0 °F 22.5 °F 23.9 °F 72% 30.72 in 10.0 mi North 12.7 mph - N/A   Clear
10:35 AM 32.2 °F 23.2 °F 23.7 °F 71% 30.73 in 10.0 mi NNW 11.5 mph 17.3 mph N/A   Clear
10:55 AM 33.1 °F 23.9 °F 24.4 °F 71% 30.73 in 10.0 mi North 12.7 mph 18.4 mph N/A   Clear
11:15 AM 33.6 °F 25.0 °F 24.6 °F 70% 30.72 in 10.0 mi NNW 11.5 mph 18.4 mph N/A   Clear
11:35 AM 33.8 °F 25.3 °F 24.3 °F 68% 30.71 in 10.0 mi NNW 11.5 mph - N/A   Scattered Clouds
11:55 AM 33.8 °F 24.8 °F 24.4 °F 69% 30.71 in 10.0 mi NNW 12.7 mph 17.3 mph N/A   Scattered Clouds
12:15 PM 34.9 °F 24.9 °F 25.5 °F 69% 30.71 in 10.0 mi NNW 16.1 mph - N/A   Scattered Clouds
12:35 PM 35.4 °F 28.4 °F 25.3 °F 67% 30.70 in 10.0 mi NNW 9.2 mph - N/A   Scattered Clouds
12:55 PM 35.6 °F 27.1 °F 25.2 °F 66% 30.70 in 10.0 mi NNW 12.7 mph 17.3 mph N/A   Scattered Clouds
1:15 PM 34.7 °F 26.4 °F 24.6 °F 67% 30.70 in 10.0 mi North 11.5 mph 17.3 mph N/A   Scattered Clouds
1:35 PM 34.9 °F 27.1 °F 23.5 °F 63% 30.70 in 10.0 mi NNW 10.4 mph - N/A   Scattered Clouds
1:55 PM 34.2 °F 25.7 °F 22.6 °F 63% 30.70 in 10.0 mi NNW 11.5 mph - N/A   Scattered Clouds
2:15 PM 35.1 °F 26.9 °F 23.0 °F 61% 30.69 in 10.0 mi NNW 11.5 mph - N/A   Scattered Clouds
2:35 PM 35.6 °F 28.0 °F 22.3 °F 58% 30.70 in 10.0 mi North 10.4 mph 18.4 mph N/A   Scattered Clouds
2:55 PM 35.4 °F 26.8 °F 22.3 °F 59% 30.70 in 10.0 mi North 12.7 mph 16.1 mph N/A   Scattered Clouds
3:15 PM 35.6 °F 27.5 °F 22.5 °F 59% 30.69 in 10.0 mi North 11.5 mph - N/A   Scattered Clouds
3:35 PM 34.7 °F 25.9 °F 21.6 °F 59% 30.70 in 10.0 mi NNW 12.7 mph - N/A   Scattered Clouds
3:55 PM 34.5 °F 27.3 °F 22.5 °F 61% 30.70 in 10.0 mi North 9.2 mph - N/A   Clear
4:15 PM 33.1 °F 25.5 °F 22.5 °F 65% 30.71 in 10.0 mi North 9.2 mph - N/A   Clear
4:35 PM 32.7 °F 25.0 °F 21.7 °F 64% 30.71 in 10.0 mi NNW 9.2 mph - N/A   Clear
4:55 PM 32.0 °F 25.6 °F 22.5 °F 68% 30.71 in 10.0 mi North 6.9 mph - N/A   Clear
5:15 PM 31.5 °F 24.9 °F 22.1 °F 68% 30.70 in 10.0 mi North 6.9 mph - N/A   Clear
5:35 PM 29.3 °F 24.3 °F 22.3 °F 75% 30.70 in 10.0 mi North 4.6 mph - N/A   Clear
5:55 PM 28.0 °F 22.8 °F 22.1 °F 78% 30.69 in 10.0 mi North 4.6 mph - N/A   Clear
6:15 PM 27.3 °F 23.4 °F 21.9 °F 80% 30.69 in 10.0 mi NNW 3.5 mph - N/A   Clear
6:35 PM 27.9 °F 24.0 °F 21.9 °F 78% 30.69 in 10.0 mi NNW 3.5 mph - N/A   Clear
6:55 PM 27.0 °F 21.6 °F 21.6 °F 80% 30.70 in 10.0 mi North 4.6 mph - N/A   Clear
7:15 PM 28.2 °F - 21.9 °F 77% 30.70 in 10.0 mi Calm Calm - N/A   Clear
7:35 PM 27.7 °F - 21.7 °F 78% 30.70 in 10.0 mi Calm Calm - N/A   Clear
7:55 PM 27.5 °F - 21.7 °F 79% 30.70 in 10.0 mi Calm Calm - N/A   Clear
8:15 PM 27.5 °F - 21.9 °F 80% 30.70 in 10.0 mi Calm Calm - N/A   Clear
8:35 PM 26.6 °F - 22.1 °F 83% 30.70 in 10.0 mi Calm Calm - N/A   Clear
8:55 PM 26.4 °F - 22.3 °F 84% 30.70 in 10.0 mi Calm Calm - N/A   Clear
9:15 PM 25.7 °F - 22.3 °F 87% 30.71 in 10.0 mi Calm Calm - N/A   Clear
9:35 PM 25.7 °F - 22.1 °F 86% 30.71 in 10.0 mi Calm Calm - N/A   Clear
9:55 PM 24.8 °F - 22.1 °F 89% 30.71 in 10.0 mi Calm Calm - N/A   Clear
10:15 PM 23.9 °F - 22.1 °F 93% 30.71 in 10.0 mi Calm Calm - N/A   Clear
10:35 PM 23.9 °F - 22.1 °F 93% 30.70 in 10.0 mi Calm Calm - N/A   Clear
10:55 PM 23.9 °F - 21.7 °F 91% 30.70 in 10.0 mi Calm Calm - N/A   Clear
11:15 PM 24.1 °F - 21.9 °F 91% 30.69 in 10.0 mi Calm Calm - N/A   Clear
11:35 PM 23.0 °F - 21.7 °F 95% 30.69 in 10.0 mi Calm Calm - N/A   Clear
11:55 PM 23.0 °F - 21.4 °F 94% 30.68 in 10.0 mi Calm Calm - N/A   Clear